sensor_id;sensor_type;location;lat;lon;timestamp;temperature;humidity
78876;DHT22;68253;52.506;5.486;2023-08-31T00:00:44;14.10;70.90
78876;DHT22;68253;52.506;5.486;2023-08-31T00:03:13;14.10;70.90
78876;DHT22;68253;52.506;5.486;2023-08-31T00:05:43;14.00;70.80
78876;DHT22;68253;52.506;5.486;2023-08-31T00:08:10;14.00;70.70
78876;DHT22;68253;52.506;5.486;2023-08-31T00:10:37;14.00;70.80
78876;DHT22;68253;52.506;5.486;2023-08-31T00:13:04;13.90;71.00
78876;DHT22;68253;52.506;5.486;2023-08-31T00:15:32;13.90;71.20
78876;DHT22;68253;52.506;5.486;2023-08-31T00:18:02;13.90;71.50
78876;DHT22;68253;52.506;5.486;2023-08-31T00:20:31;13.80;71.70
78876;DHT22;68253;52.506;5.486;2023-08-31T00:22:57;13.70;72.20
78876;DHT22;68253;52.506;5.486;2023-08-31T00:25:24;13.60;72.40
78876;DHT22;68253;52.506;5.486;2023-08-31T00:27:50;13.60;72.50
78876;DHT22;68253;52.506;5.486;2023-08-31T00:30:18;13.60;72.90
78876;DHT22;68253;52.506;5.486;2023-08-31T00:32:44;13.50;73.10
78876;DHT22;68253;52.506;5.486;2023-08-31T00:35:13;13.60;73.30
78876;DHT22;68253;52.506;5.486;2023-08-31T00:37:39;13.60;73.20
78876;DHT22;68253;52.506;5.486;2023-08-31T00:40:06;13.60;73.30
78876;DHT22;68253;52.506;5.486;2023-08-31T00:42:35;13.60;73.50
78876;DHT22;68253;52.506;5.486;2023-08-31T00:45:03;13.60;73.60
78876;DHT22;68253;52.506;5.486;2023-08-31T00:47:30;13.50;73.80
78876;DHT22;68253;52.506;5.486;2023-08-31T00:49:56;13.60;73.90
78876;DHT22;68253;52.506;5.486;2023-08-31T00:52:22;13.60;74.10
78876;DHT22;68253;52.506;5.486;2023-08-31T00:54:51;13.60;74.20
78876;DHT22;68253;52.506;5.486;2023-08-31T00:57:18;13.60;74.20
78876;DHT22;68253;52.506;5.486;2023-08-31T00:59:44;13.60;74.20
78876;DHT22;68253;52.506;5.486;2023-08-31T01:05:39;13.60;74.20
78876;DHT22;68253;52.506;5.486;2023-08-31T01:11:19;13.60;74.40
78876;DHT22;68253;52.506;5.486;2023-08-31T01:14:00;13.60;74.40
78876;DHT22;68253;52.506;5.486;2023-08-31T01:16:30;13.50;74.30
78876;DHT22;68253;52.506;5.486;2023-08-31T01:19:00;13.50;74.30
78876;DHT22;68253;52.506;5.486;2023-08-31T01:21:33;13.50;74.40
78876;DHT22;68253;52.506;5.486;2023-08-31T01:24:04;13.50;74.50
78876;DHT22;68253;52.506;5.486;2023-08-31T01:26:32;13.50;74.50
78876;DHT22;68253;52.506;5.486;2023-08-31T01:28:58;13.50;74.60
78876;DHT22;68253;52.506;5.486;2023-08-31T01:31:25;13.40;74.60
78876;DHT22;68253;52.506;5.486;2023-08-31T01:33:51;13.40;74.60
78876;DHT22;68253;52.506;5.486;2023-08-31T01:36:24;13.30;74.60
78876;DHT22;68253;52.506;5.486;2023-08-31T01:39:15;13.30;74.60
78876;DHT22;68253;52.506;5.486;2023-08-31T01:41:51;13.30;74.70
78876;DHT22;68253;52.506;5.486;2023-08-31T01:44:21;13.30;74.70
78876;DHT22;68253;52.506;5.486;2023-08-31T01:46:52;13.30;74.90
78876;DHT22;68253;52.506;5.486;2023-08-31T01:49:23;13.20;74.90
78876;DHT22;68253;52.506;5.486;2023-08-31T01:51:50;13.10;75.00
78876;DHT22;68253;52.506;5.486;2023-08-31T01:54:16;13.10;75.00
78876;DHT22;68253;52.506;5.486;2023-08-31T01:56:42;13.10;75.00
78876;DHT22;68253;52.506;5.486;2023-08-31T01:59:08;13.10;75.00
78876;DHT22;68253;52.506;5.486;2023-08-31T02:01:34;13.10;75.00
78876;DHT22;68253;52.506;5.486;2023-08-31T02:04:00;13.00;74.90
78876;DHT22;68253;52.506;5.486;2023-08-31T02:06:27;13.00;74.80
78876;DHT22;68253;52.506;5.486;2023-08-31T02:08:53;13.00;74.90
78876;DHT22;68253;52.506;5.486;2023-08-31T02:11:19;13.00;74.90
78876;DHT22;68253;52.506;5.486;2023-08-31T02:13:46;13.00;74.80
78876;DHT22;68253;52.506;5.486;2023-08-31T02:16:12;13.00;74.70
78876;DHT22;68253;52.506;5.486;2023-08-31T02:18:38;13.00;74.80
78876;DHT22;68253;52.506;5.486;2023-08-31T02:21:04;13.00;74.80
78876;DHT22;68253;52.506;5.486;2023-08-31T02:23:33;13.00;74.80
78876;DHT22;68253;52.506;5.486;2023-08-31T02:26:01;13.00;74.80
78876;DHT22;68253;52.506;5.486;2023-08-31T02:28:27;13.00;74.80
78876;DHT22;68253;52.506;5.486;2023-08-31T02:31:01;13.00;74.90
78876;DHT22;68253;52.506;5.486;2023-08-31T02:33:30;13.00;74.80
78876;DHT22;68253;52.506;5.486;2023-08-31T02:35:57;13.00;74.80
78876;DHT22;68253;52.506;5.486;2023-08-31T02:38:23;13.10;74.80
78876;DHT22;68253;52.506;5.486;2023-08-31T02:40:49;13.00;74.70
78876;DHT22;68253;52.506;5.486;2023-08-31T02:43:15;13.00;74.70
78876;DHT22;68253;52.506;5.486;2023-08-31T02:45:42;13.00;74.60
78876;DHT22;68253;52.506;5.486;2023-08-31T02:48:08;13.00;74.60
78876;DHT22;68253;52.506;5.486;2023-08-31T02:50:35;13.00;74.70
78876;DHT22;68253;52.506;5.486;2023-08-31T02:53:01;13.00;74.70
78876;DHT22;68253;52.506;5.486;2023-08-31T02:55:27;13.00;74.70
78876;DHT22;68253;52.506;5.486;2023-08-31T02:57:54;13.00;74.70
78876;DHT22;68253;52.506;5.486;2023-08-31T03:00:20;13.00;74.80
78876;DHT22;68253;52.506;5.486;2023-08-31T03:02:49;13.00;75.10
78876;DHT22;68253;52.506;5.486;2023-08-31T03:05:19;13.00;75.30
78876;DHT22;68253;52.506;5.486;2023-08-31T03:07:47;13.00;75.40
78876;DHT22;68253;52.506;5.486;2023-08-31T03:10:13;13.00;75.40
78876;DHT22;68253;52.506;5.486;2023-08-31T03:12:39;13.00;75.60
78876;DHT22;68253;52.506;5.486;2023-08-31T03:15:06;13.00;75.80
78876;DHT22;68253;52.506;5.486;2023-08-31T03:17:33;13.00;75.80
78876;DHT22;68253;52.506;5.486;2023-08-31T03:19:59;13.00;75.80
78876;DHT22;68253;52.506;5.486;2023-08-31T03:22:25;13.00;75.90
78876;DHT22;68253;52.506;5.486;2023-08-31T03:24:51;13.00;75.90
78876;DHT22;68253;52.506;5.486;2023-08-31T03:27:17;13.00;75.90
78876;DHT22;68253;52.506;5.486;2023-08-31T03:29:45;13.00;76.00
78876;DHT22;68253;52.506;5.486;2023-08-31T03:32:11;13.00;76.00
78876;DHT22;68253;52.506;5.486;2023-08-31T03:34:37;13.00;76.10
78876;DHT22;68253;52.506;5.486;2023-08-31T03:37:03;13.00;76.10
78876;DHT22;68253;52.506;5.486;2023-08-31T03:39:31;13.00;76.20
78876;DHT22;68253;52.506;5.486;2023-08-31T03:41:59;13.00;76.30
78876;DHT22;68253;52.506;5.486;2023-08-31T03:44:25;13.00;76.30
78876;DHT22;68253;52.506;5.486;2023-08-31T03:46:51;13.00;76.30
78876;DHT22;68253;52.506;5.486;2023-08-31T03:49:17;13.00;76.40
78876;DHT22;68253;52.506;5.486;2023-08-31T03:51:45;13.00;76.30
78876;DHT22;68253;52.506;5.486;2023-08-31T03:54:12;13.00;76.20
78876;DHT22;68253;52.506;5.486;2023-08-31T03:56:38;13.00;76.20
78876;DHT22;68253;52.506;5.486;2023-08-31T03:59:05;13.10;76.20
78876;DHT22;68253;52.506;5.486;2023-08-31T04:01:31;13.10;76.20
78876;DHT22;68253;52.506;5.486;2023-08-31T04:03:57;13.10;76.20
78876;DHT22;68253;52.506;5.486;2023-08-31T04:06:24;13.10;76.20
78876;DHT22;68253;52.506;5.486;2023-08-31T04:08:50;13.10;76.00
78876;DHT22;68253;52.506;5.486;2023-08-31T04:11:16;13.10;76.00
78876;DHT22;68253;52.506;5.486;2023-08-31T04:13:43;13.10;75.90
78876;DHT22;68253;52.506;5.486;2023-08-31T04:16:09;13.20;76.00
78876;DHT22;68253;52.506;5.486;2023-08-31T04:18:35;13.30;76.20
78876;DHT22;68253;52.506;5.486;2023-08-31T04:21:01;13.30;76.20
78876;DHT22;68253;52.506;5.486;2023-08-31T04:23:29;13.40;76.20
78876;DHT22;68253;52.506;5.486;2023-08-31T04:25:55;13.50;76.20
78876;DHT22;68253;52.506;5.486;2023-08-31T04:28:23;13.50;76.40
78876;DHT22;68253;52.506;5.486;2023-08-31T04:30:50;13.50;76.60
78876;DHT22;68253;52.506;5.486;2023-08-31T04:33:17;13.50;76.70
78876;DHT22;68253;52.506;5.486;2023-08-31T04:35:43;13.50;76.60
78876;DHT22;68253;52.506;5.486;2023-08-31T04:38:09;13.50;76.50
78876;DHT22;68253;52.506;5.486;2023-08-31T04:40:35;13.50;76.50
78876;DHT22;68253;52.506;5.486;2023-08-31T04:43:03;13.50;76.50
78876;DHT22;68253;52.506;5.486;2023-08-31T04:45:29;13.50;76.50
78876;DHT22;68253;52.506;5.486;2023-08-31T04:47:56;13.50;76.40
78876;DHT22;68253;52.506;5.486;2023-08-31T04:50:22;13.30;76.30
78876;DHT22;68253;52.506;5.486;2023-08-31T04:52:48;13.30;76.20
78876;DHT22;68253;52.506;5.486;2023-08-31T04:55:14;13.30;76.20
78876;DHT22;68253;52.506;5.486;2023-08-31T04:57:41;13.30;76.20
78876;DHT22;68253;52.506;5.486;2023-08-31T05:00:07;13.20;76.20
78876;DHT22;68253;52.506;5.486;2023-08-31T05:02:37;13.10;76.20
78876;DHT22;68253;52.506;5.486;2023-08-31T05:05:04;13.10;76.30
78876;DHT22;68253;52.506;5.486;2023-08-31T05:07:31;13.10;76.30
78876;DHT22;68253;52.506;5.486;2023-08-31T05:09:57;13.10;76.30
78876;DHT22;68253;52.506;5.486;2023-08-31T05:12:24;13.10;76.20
78876;DHT22;68253;52.506;5.486;2023-08-31T05:14:50;13.10;76.20
78876;DHT22;68253;52.506;5.486;2023-08-31T05:17:16;13.10;76.10
78876;DHT22;68253;52.506;5.486;2023-08-31T05:19:42;13.10;76.10
78876;DHT22;68253;52.506;5.486;2023-08-31T05:22:08;13.10;76.10
78876;DHT22;68253;52.506;5.486;2023-08-31T05:24:34;13.10;76.20
78876;DHT22;68253;52.506;5.486;2023-08-31T05:27:00;13.10;76.20
78876;DHT22;68253;52.506;5.486;2023-08-31T05:29:27;13.10;76.20
78876;DHT22;68253;52.506;5.486;2023-08-31T05:31:53;13.10;76.20
78876;DHT22;68253;52.506;5.486;2023-08-31T05:34:21;13.20;76.30
78876;DHT22;68253;52.506;5.486;2023-08-31T05:36:48;13.20;76.30
78876;DHT22;68253;52.506;5.486;2023-08-31T05:39:15;13.20;76.40
78876;DHT22;68253;52.506;5.486;2023-08-31T05:41:43;13.30;76.40
78876;DHT22;68253;52.506;5.486;2023-08-31T05:44:10;13.30;76.40
78876;DHT22;68253;52.506;5.486;2023-08-31T05:46:36;13.30;76.40
78876;DHT22;68253;52.506;5.486;2023-08-31T05:49:04;13.30;76.40
78876;DHT22;68253;52.506;5.486;2023-08-31T05:51:30;13.40;76.50
78876;DHT22;68253;52.506;5.486;2023-08-31T05:53:56;13.50;75.90
78876;DHT22;68253;52.506;5.486;2023-08-31T05:56:22;13.60;75.50
78876;DHT22;68253;52.506;5.486;2023-08-31T05:58:49;13.70;75.30
78876;DHT22;68253;52.506;5.486;2023-08-31T06:01:16;13.80;75.10
78876;DHT22;68253;52.506;5.486;2023-08-31T06:03:42;13.90;74.60
78876;DHT22;68253;52.506;5.486;2023-08-31T06:06:09;14.00;74.00
78876;DHT22;68253;52.506;5.486;2023-08-31T06:08:35;14.00;73.70
78876;DHT22;68253;52.506;5.486;2023-08-31T06:11:01;14.00;73.90
78876;DHT22;68253;52.506;5.486;2023-08-31T06:13:27;13.90;74.10
78876;DHT22;68253;52.506;5.486;2023-08-31T06:15:53;13.90;74.70
78876;DHT22;68253;52.506;5.486;2023-08-31T06:18:21;13.80;75.10
78876;DHT22;68253;52.506;5.486;2023-08-31T06:20:49;13.80;75.60
78876;DHT22;68253;52.506;5.486;2023-08-31T06:23:15;13.70;76.00
78876;DHT22;68253;52.506;5.486;2023-08-31T06:25:42;13.60;76.20
78876;DHT22;68253;52.506;5.486;2023-08-31T06:28:08;13.60;76.40
78876;DHT22;68253;52.506;5.486;2023-08-31T06:30:37;13.60;76.50
78876;DHT22;68253;52.506;5.486;2023-08-31T06:33:04;13.60;76.60
78876;DHT22;68253;52.506;5.486;2023-08-31T06:35:30;13.60;76.60
78876;DHT22;68253;52.506;5.486;2023-08-31T06:37:59;13.70;76.80
78876;DHT22;68253;52.506;5.486;2023-08-31T06:40:25;13.90;77.00
78876;DHT22;68253;52.506;5.486;2023-08-31T06:42:51;14.00;77.00
78876;DHT22;68253;52.506;5.486;2023-08-31T06:45:17;14.40;76.60
78876;DHT22;68253;52.506;5.486;2023-08-31T06:47:44;14.60;75.50
78876;DHT22;68253;52.506;5.486;2023-08-31T06:50:10;14.70;74.80
78876;DHT22;68253;52.506;5.486;2023-08-31T06:52:36;14.70;74.70
78876;DHT22;68253;52.506;5.486;2023-08-31T06:55:03;14.60;74.80
78876;DHT22;68253;52.506;5.486;2023-08-31T06:57:29;14.60;75.00
78876;DHT22;68253;52.506;5.486;2023-08-31T06:59:55;14.60;75.10
78876;DHT22;68253;52.506;5.486;2023-08-31T07:02:21;14.60;74.50
78876;DHT22;68253;52.506;5.486;2023-08-31T07:04:50;14.50;74.60
78876;DHT22;68253;52.506;5.486;2023-08-31T07:07:18;14.50;75.00
78876;DHT22;68253;52.506;5.486;2023-08-31T07:09:46;14.50;75.10
78876;DHT22;68253;52.506;5.486;2023-08-31T07:12:12;14.50;75.00
78876;DHT22;68253;52.506;5.486;2023-08-31T07:14:38;14.50;75.10
78876;DHT22;68253;52.506;5.486;2023-08-31T07:17:04;14.50;75.10
78876;DHT22;68253;52.506;5.486;2023-08-31T07:19:30;14.50;75.20
78876;DHT22;68253;52.506;5.486;2023-08-31T07:21:57;14.40;75.40
78876;DHT22;68253;52.506;5.486;2023-08-31T07:24:23;14.40;75.40
78876;DHT22;68253;52.506;5.486;2023-08-31T07:26:50;14.40;75.50
78876;DHT22;68253;52.506;5.486;2023-08-31T07:29:16;14.40;75.70
78876;DHT22;68253;52.506;5.486;2023-08-31T07:31:42;14.50;75.70
78876;DHT22;68253;52.506;5.486;2023-08-31T07:34:08;14.70;76.50
78876;DHT22;68253;52.506;5.486;2023-08-31T07:36:34;15.20;76.20
78876;DHT22;68253;52.506;5.486;2023-08-31T07:39:01;15.60;75.30
78876;DHT22;68253;52.506;5.486;2023-08-31T07:41:27;15.80;74.10
78876;DHT22;68253;52.506;5.486;2023-08-31T07:43:53;15.70;73.40
78876;DHT22;68253;52.506;5.486;2023-08-31T07:46:19;15.60;73.10
78876;DHT22;68253;52.506;5.486;2023-08-31T07:48:45;15.40;73.40
78876;DHT22;68253;52.506;5.486;2023-08-31T07:51:14;15.20;73.60
78876;DHT22;68253;52.506;5.486;2023-08-31T07:53:40;15.10;73.80
78876;DHT22;68253;52.506;5.486;2023-08-31T07:56:06;15.00;74.10
78876;DHT22;68253;52.506;5.486;2023-08-31T07:58:32;15.00;74.40
78876;DHT22;68253;52.506;5.486;2023-08-31T08:00:59;15.00;74.60
78876;DHT22;68253;52.506;5.486;2023-08-31T08:03:25;15.00;75.20
78876;DHT22;68253;52.506;5.486;2023-08-31T08:05:51;15.30;75.90
78876;DHT22;68253;52.506;5.486;2023-08-31T08:08:18;15.70;75.40
78876;DHT22;68253;52.506;5.486;2023-08-31T08:10:44;16.00;75.50
78876;DHT22;68253;52.506;5.486;2023-08-31T08:13:10;16.40;74.90
78876;DHT22;68253;52.506;5.486;2023-08-31T08:15:37;16.70;73.30
78876;DHT22;68253;52.506;5.486;2023-08-31T08:18:03;16.70;72.90
78876;DHT22;68253;52.506;5.486;2023-08-31T08:20:30;16.70;72.80
78876;DHT22;68253;52.506;5.486;2023-08-31T08:22:57;16.70;73.10
78876;DHT22;68253;52.506;5.486;2023-08-31T08:25:24;16.80;72.90
78876;DHT22;68253;52.506;5.486;2023-08-31T08:27:50;17.20;73.90
78876;DHT22;68253;52.506;5.486;2023-08-31T08:30:16;17.60;73.90
78876;DHT22;68253;52.506;5.486;2023-08-31T08:32:44;18.10;72.90
78876;DHT22;68253;52.506;5.486;2023-08-31T08:35:10;18.40;71.90
78876;DHT22;68253;52.506;5.486;2023-08-31T08:37:36;18.80;71.40
78876;DHT22;68253;52.506;5.486;2023-08-31T08:40:02;19.20;69.60
78876;DHT22;68253;52.506;5.486;2023-08-31T08:42:30;19.50;70.30
78876;DHT22;68253;52.506;5.486;2023-08-31T08:45:02;19.90;69.10
78876;DHT22;68253;52.506;5.486;2023-08-31T08:47:29;20.30;68.10
78876;DHT22;68253;52.506;5.486;2023-08-31T08:49:56;20.50;66.80
78876;DHT22;68253;52.506;5.486;2023-08-31T08:52:23;20.70;65.50
78876;DHT22;68253;52.506;5.486;2023-08-31T08:54:50;20.70;65.30
78876;DHT22;68253;52.506;5.486;2023-08-31T08:57:16;20.90;65.40
78876;DHT22;68253;52.506;5.486;2023-08-31T08:59:42;21.10;64.90
78876;DHT22;68253;52.506;5.486;2023-08-31T09:02:10;21.20;65.30
78876;DHT22;68253;52.506;5.486;2023-08-31T09:04:37;21.30;65.20
78876;DHT22;68253;52.506;5.486;2023-08-31T09:07:03;21.10;63.40
78876;DHT22;68253;52.506;5.486;2023-08-31T09:09:29;20.80;63.90
78876;DHT22;68253;52.506;5.486;2023-08-31T09:11:55;20.50;63.30
78876;DHT22;68253;52.506;5.486;2023-08-31T09:14:22;20.20;63.60
78876;DHT22;68253;52.506;5.486;2023-08-31T09:16:50;20.00;63.60
78876;DHT22;68253;52.506;5.486;2023-08-31T09:19:22;20.20;63.50
78876;DHT22;68253;52.506;5.486;2023-08-31T09:21:55;20.40;63.60
78876;DHT22;68253;52.506;5.486;2023-08-31T09:24:21;20.30;63.80
78876;DHT22;68253;52.506;5.486;2023-08-31T09:26:58;20.10;63.70
78876;DHT22;68253;52.506;5.486;2023-08-31T09:29:25;19.70;64.60
78876;DHT22;68253;52.506;5.486;2023-08-31T09:31:51;19.40;65.10
78876;DHT22;68253;52.506;5.486;2023-08-31T09:34:18;19.00;66.10
78876;DHT22;68253;52.506;5.486;2023-08-31T09:36:44;18.80;66.90
78876;DHT22;68253;52.506;5.486;2023-08-31T09:39:12;18.60;67.40
78876;DHT22;68253;52.506;5.486;2023-08-31T09:41:55;18.50;67.90
78876;DHT22;68253;52.506;5.486;2023-08-31T09:44:21;18.50;67.80
78876;DHT22;68253;52.506;5.486;2023-08-31T09:46:48;18.60;67.70
78876;DHT22;68253;52.506;5.486;2023-08-31T09:49:16;18.60;68.40
78876;DHT22;68253;52.506;5.486;2023-08-31T09:51:45;18.70;68.40
78876;DHT22;68253;52.506;5.486;2023-08-31T09:54:14;19.00;68.30
78876;DHT22;68253;52.506;5.486;2023-08-31T09:56:43;19.50;68.40
78876;DHT22;68253;52.506;5.486;2023-08-31T09:59:14;20.10;66.70
78876;DHT22;68253;52.506;5.486;2023-08-31T10:01:40;20.60;65.40
78876;DHT22;68253;52.506;5.486;2023-08-31T10:04:07;20.90;66.20
78876;DHT22;68253;52.506;5.486;2023-08-31T10:06:35;21.30;62.30
78876;DHT22;68253;52.506;5.486;2023-08-31T10:09:04;21.50;60.50
78876;DHT22;68253;52.506;5.486;2023-08-31T10:11:31;21.50;62.10
78876;DHT22;68253;52.506;5.486;2023-08-31T10:13:59;21.70;61.90
78876;DHT22;68253;52.506;5.486;2023-08-31T10:16:26;22.00;60.00
78876;DHT22;68253;52.506;5.486;2023-08-31T10:18:56;21.90;60.50
78876;DHT22;68253;52.506;5.486;2023-08-31T10:21:22;21.70;61.00
78876;DHT22;68253;52.506;5.486;2023-08-31T10:23:50;21.40;62.20
78876;DHT22;68253;52.506;5.486;2023-08-31T10:26:30;21.10;62.70
78876;DHT22;68253;52.506;5.486;2023-08-31T10:28:58;20.80;62.40
78876;DHT22;68253;52.506;5.486;2023-08-31T10:31:28;20.50;62.90
78876;DHT22;68253;52.506;5.486;2023-08-31T10:36:21;20.10;63.90
78876;DHT22;68253;52.506;5.486;2023-08-31T10:39:00;20.50;64.10
78876;DHT22;68253;52.506;5.486;2023-08-31T10:41:36;20.90;63.00
78876;DHT22;68253;52.506;5.486;2023-08-31T10:44:02;21.30;59.60
78876;DHT22;68253;52.506;5.486;2023-08-31T10:46:44;21.30;59.80
78876;DHT22;68253;52.506;5.486;2023-08-31T10:51:42;20.80;60.20
78876;DHT22;68253;52.506;5.486;2023-08-31T10:54:12;20.50;60.80
78876;DHT22;68253;52.506;5.486;2023-08-31T10:59:51;20.40;62.30
78876;DHT22;68253;52.506;5.486;2023-08-31T11:05:15;21.50;61.00
78876;DHT22;68253;52.506;5.486;2023-08-31T11:07:49;22.00;60.70
78876;DHT22;68253;52.506;5.486;2023-08-31T11:10:20;22.50;58.80
78876;DHT22;68253;52.506;5.486;2023-08-31T11:12:50;22.70;58.20
78876;DHT22;68253;52.506;5.486;2023-08-31T11:15:21;22.90;57.40
78876;DHT22;68253;52.506;5.486;2023-08-31T11:17:51;23.10;57.40
78876;DHT22;68253;52.506;5.486;2023-08-31T11:20:20;23.20;56.70
78876;DHT22;68253;52.506;5.486;2023-08-31T11:22:48;23.10;57.40
78876;DHT22;68253;52.506;5.486;2023-08-31T11:25:21;23.10;57.60
78876;DHT22;68253;52.506;5.486;2023-08-31T11:28:01;23.20;56.50
78876;DHT22;68253;52.506;5.486;2023-08-31T11:30:29;23.30;56.00
78876;DHT22;68253;52.506;5.486;2023-08-31T11:33:01;23.30;55.00
78876;DHT22;68253;52.506;5.486;2023-08-31T11:35:35;23.40;55.60
78876;DHT22;68253;52.506;5.486;2023-08-31T11:38:02;23.60;55.80
78876;DHT22;68253;52.506;5.486;2023-08-31T11:40:29;23.60;55.90
78876;DHT22;68253;52.506;5.486;2023-08-31T11:42:57;23.70;56.50
78876;DHT22;68253;52.506;5.486;2023-08-31T11:45:24;23.90;56.40
78876;DHT22;68253;52.506;5.486;2023-08-31T11:47:52;23.90;55.30
78876;DHT22;68253;52.506;5.486;2023-08-31T11:50:19;23.60;55.00
78876;DHT22;68253;52.506;5.486;2023-08-31T11:52:46;23.30;55.50
78876;DHT22;68253;52.506;5.486;2023-08-31T11:55:15;23.10;55.90
78876;DHT22;68253;52.506;5.486;2023-08-31T11:57:52;22.80;56.60
78876;DHT22;68253;52.506;5.486;2023-08-31T12:00:21;22.40;56.90
78876;DHT22;68253;52.506;5.486;2023-08-31T12:03:00;22.00;57.10
78876;DHT22;68253;52.506;5.486;2023-08-31T12:05:27;21.90;58.40
78876;DHT22;68253;52.506;5.486;2023-08-31T12:07:57;21.90;57.00
78876;DHT22;68253;52.506;5.486;2023-08-31T12:10:26;22.00;56.80
78876;DHT22;68253;52.506;5.486;2023-08-31T12:12:53;22.20;56.90
78876;DHT22;68253;52.506;5.486;2023-08-31T12:15:21;22.50;57.00
78876;DHT22;68253;52.506;5.486;2023-08-31T12:17:48;22.80;55.20
78876;DHT22;68253;52.506;5.486;2023-08-31T12:20:25;23.20;55.70
78876;DHT22;68253;52.506;5.486;2023-08-31T12:22:52;23.50;55.50
78876;DHT22;68253;52.506;5.486;2023-08-31T12:25:22;23.50;54.40
78876;DHT22;68253;52.506;5.486;2023-08-31T12:27:48;23.50;54.20
78876;DHT22;68253;52.506;5.486;2023-08-31T12:30:15;23.60;53.90
78876;DHT22;68253;52.506;5.486;2023-08-31T12:32:41;23.90;54.70
78876;DHT22;68253;52.506;5.486;2023-08-31T12:35:08;24.10;53.70
78876;DHT22;68253;52.506;5.486;2023-08-31T12:37:35;24.40;53.40
78876;DHT22;68253;52.506;5.486;2023-08-31T12:40:02;24.40;53.20
78876;DHT22;68253;52.506;5.486;2023-08-31T12:42:31;24.40;51.70
78876;DHT22;68253;52.506;5.486;2023-08-31T12:44:57;24.40;52.50
78876;DHT22;68253;52.506;5.486;2023-08-31T12:47:24;24.40;51.80
78876;DHT22;68253;52.506;5.486;2023-08-31T12:49:50;24.40;52.60
78876;DHT22;68253;52.506;5.486;2023-08-31T12:52:16;24.50;51.80
78876;DHT22;68253;52.506;5.486;2023-08-31T12:54:42;24.60;52.00
78876;DHT22;68253;52.506;5.486;2023-08-31T12:57:08;24.60;51.40
78876;DHT22;68253;52.506;5.486;2023-08-31T12:59:34;24.60;51.00
78876;DHT22;68253;52.506;5.486;2023-08-31T13:02:00;24.70;51.90
78876;DHT22;68253;52.506;5.486;2023-08-31T13:04:32;24.90;51.70
78876;DHT22;68253;52.506;5.486;2023-08-31T13:06:58;25.00;51.50
78876;DHT22;68253;52.506;5.486;2023-08-31T13:09:24;25.10;52.00
78876;DHT22;68253;52.506;5.486;2023-08-31T13:11:50;25.10;52.20
78876;DHT22;68253;52.506;5.486;2023-08-31T13:14:16;25.00;52.50
78876;DHT22;68253;52.506;5.486;2023-08-31T13:16:43;25.00;52.30
78876;DHT22;68253;52.506;5.486;2023-08-31T13:19:09;25.00;52.30
78876;DHT22;68253;52.506;5.486;2023-08-31T13:21:35;25.00;52.50
78876;DHT22;68253;52.506;5.486;2023-08-31T13:24:01;25.00;52.40
78876;DHT22;68253;52.506;5.486;2023-08-31T13:26:27;25.00;52.30
78876;DHT22;68253;52.506;5.486;2023-08-31T13:28:53;25.20;51.80
78876;DHT22;68253;52.506;5.486;2023-08-31T13:31:19;25.20;50.90
78876;DHT22;68253;52.506;5.486;2023-08-31T13:33:46;25.20;50.40
78876;DHT22;68253;52.506;5.486;2023-08-31T13:36:12;25.20;51.30
78876;DHT22;68253;52.506;5.486;2023-08-31T13:38:39;25.20;50.70
78876;DHT22;68253;52.506;5.486;2023-08-31T13:41:05;25.20;50.50
78876;DHT22;68253;52.506;5.486;2023-08-31T13:43:31;25.00;51.00
78876;DHT22;68253;52.506;5.486;2023-08-31T13:45:57;25.00;51.10
78876;DHT22;68253;52.506;5.486;2023-08-31T13:48:23;25.10;51.20
78876;DHT22;68253;52.506;5.486;2023-08-31T13:50:49;25.10;50.10
78876;DHT22;68253;52.506;5.486;2023-08-31T13:53:15;25.00;50.30
78876;DHT22;68253;52.506;5.486;2023-08-31T13:55:41;25.00;50.30
78876;DHT22;68253;52.506;5.486;2023-08-31T13:58:08;25.00;51.50
78876;DHT22;68253;52.506;5.486;2023-08-31T14:00:35;25.00;51.60
78876;DHT22;68253;52.506;5.486;2023-08-31T14:03:03;25.10;51.80
78876;DHT22;68253;52.506;5.486;2023-08-31T14:05:30;25.10;50.70
78876;DHT22;68253;52.506;5.486;2023-08-31T14:07:56;25.10;49.60
78876;DHT22;68253;52.506;5.486;2023-08-31T14:10:24;25.00;50.70
78876;DHT22;68253;52.506;5.486;2023-08-31T14:12:50;25.00;50.20
78876;DHT22;68253;52.506;5.486;2023-08-31T14:15:17;25.00;50.30
78876;DHT22;68253;52.506;5.486;2023-08-31T14:17:43;24.90;49.20
78876;DHT22;68253;52.506;5.486;2023-08-31T14:20:09;24.70;49.80
78876;DHT22;68253;52.506;5.486;2023-08-31T14:22:37;24.70;50.30
78876;DHT22;68253;52.506;5.486;2023-08-31T14:25:10;24.60;49.20
78876;DHT22;68253;52.506;5.486;2023-08-31T14:27:37;24.50;49.60
78876;DHT22;68253;52.506;5.486;2023-08-31T14:30:04;24.50;49.10
78876;DHT22;68253;52.506;5.486;2023-08-31T14:32:30;24.40;48.40
78876;DHT22;68253;52.506;5.486;2023-08-31T14:34:56;24.40;49.00
78876;DHT22;68253;52.506;5.486;2023-08-31T14:37:23;24.40;49.70
78876;DHT22;68253;52.506;5.486;2023-08-31T14:39:49;24.30;50.20
78876;DHT22;68253;52.506;5.486;2023-08-31T14:42:15;24.20;50.70
78876;DHT22;68253;52.506;5.486;2023-08-31T14:44:43;24.20;50.50
78876;DHT22;68253;52.506;5.486;2023-08-31T14:47:10;24.10;50.80
78876;DHT22;68253;52.506;5.486;2023-08-31T14:49:39;24.00;49.60
78876;DHT22;68253;52.506;5.486;2023-08-31T14:52:06;24.00;50.00
78876;DHT22;68253;52.506;5.486;2023-08-31T14:54:33;23.90;50.30
78876;DHT22;68253;52.506;5.486;2023-08-31T14:56:59;23.90;50.20
78876;DHT22;68253;52.506;5.486;2023-08-31T14:59:25;23.80;50.80
78876;DHT22;68253;52.506;5.486;2023-08-31T15:01:51;23.80;50.00
78876;DHT22;68253;52.506;5.486;2023-08-31T15:04:18;23.70;49.80
78876;DHT22;68253;52.506;5.486;2023-08-31T15:06:44;23.60;50.30
78876;DHT22;68253;52.506;5.486;2023-08-31T15:09:10;23.50;50.40
78876;DHT22;68253;52.506;5.486;2023-08-31T15:11:36;23.30;51.00
78876;DHT22;68253;52.506;5.486;2023-08-31T15:14:04;23.30;51.20
78876;DHT22;68253;52.506;5.486;2023-08-31T15:16:31;23.20;51.00
78876;DHT22;68253;52.506;5.486;2023-08-31T15:19:00;23.10;51.30
78876;DHT22;68253;52.506;5.486;2023-08-31T15:21:27;23.10;51.20
78876;DHT22;68253;52.506;5.486;2023-08-31T15:23:53;23.00;50.80
78876;DHT22;68253;52.506;5.486;2023-08-31T15:26:19;23.00;51.20
78876;DHT22;68253;52.506;5.486;2023-08-31T15:28:46;22.90;51.30
78876;DHT22;68253;52.506;5.486;2023-08-31T15:31:12;22.80;51.50
78876;DHT22;68253;52.506;5.486;2023-08-31T15:33:38;22.70;51.50
78876;DHT22;68253;52.506;5.486;2023-08-31T15:36:08;22.60;51.90
78876;DHT22;68253;52.506;5.486;2023-08-31T15:38:35;22.50;51.50
78876;DHT22;68253;52.506;5.486;2023-08-31T15:41:03;22.50;49.90
78876;DHT22;68253;52.506;5.486;2023-08-31T15:43:34;22.30;50.80
78876;DHT22;68253;52.506;5.486;2023-08-31T15:46:02;22.20;50.90
78876;DHT22;68253;52.506;5.486;2023-08-31T15:48:28;22.10;50.90